createdAt,value
2022-09-15T05:07:07.853Z,14.93
2022-09-15T05:09:35.710Z,13.99
2022-09-15T05:12:03.727Z,14.57
2022-09-15T05:14:31.815Z,14.02
2022-09-15T05:16:59.680Z,14.64
2022-09-15T05:19:27.646Z,14.57
2022-09-15T05:21:55.660Z,12.34
2022-09-15T05:24:24.920Z,13.35
2022-09-15T05:26:52.943Z,14.73
2022-09-15T05:29:20.847Z,13.03
2022-09-15T05:41:19.962Z,15.41
2022-09-15T05:43:49.932Z,14.37
2022-09-15T05:46:20.577Z,13.83
2022-09-15T05:48:48.780Z,12.93
2022-09-15T05:51:17.336Z,14.75
2022-09-15T05:53:46.220Z,14.19
2022-09-15T05:56:16.466Z,12.80
2022-09-15T05:58:48.548Z,15.67
2022-09-15T06:01:19.456Z,14.07
2022-09-15T06:52:52.201Z,13.72
2022-09-15T07:20:34.392Z,16.14
2022-09-15T07:23:02.870Z,15.33
2022-09-15T07:25:31.052Z,15.16
2022-09-15T07:37:37.059Z,14.81
2022-09-15T07:40:07.575Z,14.76
2022-09-15T07:42:36.835Z,13.53
2022-09-15T07:45:10.103Z,14.09
2022-09-15T07:54:01.028Z,16.30
2022-09-15T07:56:31.978Z,14.67
2022-09-15T07:59:23.209Z,15.28
2022-09-15T08:01:56.684Z,17.79
2022-09-15T08:04:29.237Z,18.01
2022-09-15T08:07:02.148Z,15.66
2022-09-15T08:09:54.176Z,17.22
2022-09-15T08:12:24.893Z,19.56
2022-09-15T08:49:59.138Z,20.49
2022-09-15T10:01:21.092Z,22.45
2022-09-15T10:03:49.670Z,24.07
2022-09-15T10:12:34.201Z,22.96
2022-09-15T10:15:06.167Z,25.16
2022-09-15T10:17:49.895Z,24.88
2022-09-15T10:20:28.863Z,24.26
2022-09-15T10:23:07.966Z,21.90
2022-09-15T10:25:58.080Z,20.09
2022-09-15T10:28:30.190Z,21.63
2022-09-15T10:31:07.382Z,19.56
2022-09-15T10:33:39.251Z,20.50
2022-09-15T10:36:13.157Z,22.69
2022-09-15T10:38:44.773Z,20.86
2022-09-15T10:41:26.160Z,21.68
2022-09-15T10:44:22.963Z,21.92
2022-09-15T10:46:59.988Z,23.35
2022-09-15T10:49:39.583Z,21.47
2022-09-15T10:52:19.711Z,23.52
2022-09-15T10:55:02.158Z,22.01
2022-09-15T10:57:47.985Z,22.83
2022-09-15T11:00:22.415Z,24.17
2022-09-15T11:03:27.024Z,23.39
2022-09-15T11:15:22.421Z,25.53
2022-09-15T11:18:05.612Z,23.78
2022-09-15T11:20:53.857Z,24.30
2022-09-15T11:23:29.229Z,21.49
2022-09-15T11:26:05.810Z,23.03
2022-09-15T11:28:39.973Z,24.58
2022-09-15T11:31:18.564Z,23.09
2022-09-15T11:49:43.887Z,22.09
2022-09-15T11:52:56.705Z,22.13
2022-09-15T12:50:57.237Z,23.58
2022-09-15T12:53:32.264Z,23.03
2022-09-15T12:56:03.926Z,21.63
2022-09-15T12:58:37.812Z,22.37
2022-09-15T13:01:38.190Z,21.99
2022-09-15T13:04:25.000Z,22.71
2022-09-15T13:07:34.830Z,24.54
2022-09-15T13:25:58.814Z,21.11
2022-09-15T13:28:28.389Z,21.76
2022-09-15T13:40:49.329Z,22.07
2022-09-15T13:43:43.590Z,22.36
2022-09-15T13:46:28.935Z,21.42
2022-09-15T13:49:16.791Z,22.08
2022-09-15T13:51:53.497Z,22.11
2022-09-15T13:54:24.950Z,21.42
2022-09-15T13:56:53.586Z,21.27
2022-09-15T13:59:26.901Z,21.19
2022-09-15T14:01:56.732Z,21.67
2022-09-15T14:04:27.850Z,21.31
2022-09-15T14:07:01.010Z,21.62
2022-09-15T14:09:34.389Z,21.68
2022-09-15T14:12:05.264Z,21.82
2022-09-15T14:14:40.170Z,22.04
2022-09-15T14:17:20.644Z,22.15
2022-09-15T14:19:50.277Z,21.97
2022-09-15T14:22:27.292Z,21.63
2022-09-15T14:24:56.506Z,21.16
2022-09-15T14:27:31.903Z,21.57
2022-09-15T14:30:08.293Z,20.69
2022-09-15T14:32:40.200Z,20.01
2022-09-15T14:35:19.823Z,20.79
2022-09-15T14:38:04.799Z,20.95
2022-09-15T14:46:40.378Z,20.70
2022-09-15T14:49:11.791Z,20.86
2022-09-15T14:51:40.780Z,19.55
2022-09-15T14:54:17.179Z,20.82
2022-09-15T14:56:46.943Z,20.71
2022-09-15T14:59:20.328Z,20.55
2022-09-15T15:01:57.909Z,19.22
2022-09-15T15:04:31.928Z,20.22
2022-09-15T15:07:05.049Z,20.09
2022-09-15T15:09:38.853Z,19.96
2022-09-15T15:12:15.362Z,19.52
2022-09-15T15:14:43.574Z,19.70
2022-09-15T15:17:27.676Z,19.32
2022-09-15T15:20:13.332Z,19.57
2022-09-15T15:22:43.641Z,18.97
2022-09-15T15:25:28.184Z,19.22
2022-09-15T15:27:57.440Z,19.18
2022-09-15T15:30:47.100Z,19.03
2022-09-15T15:33:27.518Z,18.91
2022-09-15T15:36:07.832Z,17.59
2022-09-15T15:38:37.974Z,18.55
2022-09-15T15:41:08.029Z,18.61
2022-09-15T15:43:36.119Z,18.54
2022-09-15T15:46:06.656Z,18.46
2022-09-15T15:48:38.545Z,17.71
2022-09-15T15:51:07.677Z,18.28
2022-09-15T15:53:35.750Z,16.45
2022-09-15T15:56:04.021Z,17.64
2022-09-15T15:58:33.294Z,17.39
2022-09-15T16:01:01.184Z,18.21
2022-09-15T16:03:29.023Z,18.20
2022-09-15T16:06:00.430Z,17.80
2022-09-15T16:08:31.099Z,18.14
2022-09-15T16:11:01.999Z,18.09
2022-09-15T16:13:29.898Z,18.05
2022-09-15T16:16:00.538Z,17.69
2022-09-15T16:18:28.888Z,17.97
2022-09-15T16:20:56.815Z,16.85
2022-09-15T16:23:25.978Z,15.96
2022-09-15T16:25:56.438Z,14.92
2022-09-15T16:28:24.409Z,17.50
2022-09-15T16:30:56.721Z,17.79
2022-09-15T16:33:25.779Z,17.76
2022-09-15T16:35:56.362Z,16.53
2022-09-15T16:38:28.095Z,17.59
2022-09-15T16:40:56.635Z,17.67
2022-09-15T16:43:24.457Z,17.65
2022-09-15T16:45:53.168Z,17.62
2022-09-15T16:48:21.406Z,17.61
2022-09-15T16:51:09.067Z,17.57
2022-09-15T16:53:40.839Z,16.39
2022-09-15T16:56:12.604Z,15.40
2022-09-15T16:58:40.612Z,17.51
2022-09-15T17:01:13.369Z,16.89
2022-09-15T17:03:43.236Z,15.74
2022-09-15T17:06:14.407Z,16.19
2022-09-15T17:08:43.698Z,17.40
2022-09-15T17:11:16.393Z,15.75
2022-09-15T17:13:45.282Z,15.91
2022-09-15T17:16:14.842Z,16.95
2022-09-15T17:18:42.771Z,16.71
2022-09-15T17:21:12.126Z,16.90
2022-09-15T17:23:42.024Z,17.19
2022-09-15T17:26:13.872Z,17.16
2022-09-15T17:28:42.148Z,16.98
2022-09-15T17:31:15.347Z,17.11
2022-09-15T17:33:43.594Z,16.96
2022-09-15T17:36:11.418Z,17.02
2022-09-15T17:38:40.910Z,16.99
2022-09-15T17:41:08.735Z,16.72
2022-09-15T17:43:37.923Z,16.93
2022-09-15T17:46:05.896Z,16.88
2022-09-15T17:48:33.863Z,16.22
2022-09-15T17:51:01.856Z,16.49
2022-09-15T17:53:31.014Z,16.78
2022-09-15T17:55:58.804Z,16.76
2022-09-15T17:58:29.890Z,16.16
2022-09-15T18:01:00.243Z,16.48
2022-09-15T18:03:33.165Z,16.63
2022-09-15T18:06:04.277Z,16.61
2022-09-15T18:08:32.866Z,15.07
2022-09-15T18:11:01.391Z,15.77
2022-09-15T18:13:31.230Z,16.55
2022-09-15T18:16:07.248Z,15.61
2022-09-15T18:18:35.184Z,16.41
2022-09-15T18:21:09.540Z,14.84
2022-09-15T18:23:39.074Z,14.72
2022-09-15T18:26:07.063Z,13.80
2022-09-15T18:28:34.842Z,16.38
2022-09-15T18:31:04.064Z,16.01
2022-09-15T18:33:31.886Z,15.84
2022-09-15T18:36:00.086Z,16.27
2022-09-15T18:38:28.079Z,14.98
2022-09-15T18:40:57.156Z,15.26
2022-09-15T18:43:27.591Z,16.03
2022-09-15T18:46:01.844Z,16.24
2022-09-15T18:48:37.156Z,16.20
2022-09-15T18:51:08.648Z,16.20
2022-09-15T18:53:36.415Z,16.18
2022-09-15T18:56:10.534Z,15.10
2022-09-15T18:58:38.449Z,15.59
2022-09-15T19:01:07.114Z,16.11
2022-09-15T19:03:44.050Z,15.79
2022-09-15T19:06:12.152Z,16.04
2022-09-15T19:08:40.285Z,15.61
2022-09-15T19:11:09.248Z,15.60
2022-09-15T19:13:37.011Z,15.97
2022-09-15T19:16:05.539Z,15.96
2022-09-15T19:18:33.438Z,14.53
2022-09-15T19:21:07.158Z,14.70
2022-09-15T19:23:35.869Z,15.96
2022-09-15T19:26:04.862Z,15.42
2022-09-15T19:28:33.343Z,15.98
2022-09-15T19:31:01.599Z,15.65
2022-09-15T19:33:29.419Z,15.87
2022-09-15T19:36:17.181Z,15.39
2022-09-15T19:38:51.832Z,15.67
2022-09-15T19:41:19.618Z,15.95
2022-09-15T19:43:47.412Z,15.66
2022-09-15T19:46:17.117Z,15.95
2022-09-15T19:48:47.934Z,15.50
2022-09-15T19:51:19.092Z,15.79
2022-09-15T19:53:47.477Z,14.69
2022-09-15T19:56:18.336Z,15.90
2022-09-15T19:58:46.591Z,15.89
2022-09-15T20:01:14.754Z,15.87
2022-09-15T20:03:42.836Z,15.79
2022-09-15T20:06:10.641Z,15.85
2022-09-15T20:08:41.493Z,15.86
2022-09-15T20:11:10.500Z,13.59
2022-09-15T20:13:41.446Z,15.66
2022-09-15T20:16:09.581Z,15.13
2022-09-15T20:18:41.159Z,15.85
2022-09-15T20:21:12.336Z,15.27
2022-09-15T20:23:50.233Z,15.10
2022-09-15T20:26:18.738Z,14.04
2022-09-15T20:28:48.505Z,15.79
2022-09-15T20:44:04.895Z,15.25
2022-09-15T20:46:39.408Z,14.13
2022-09-15T20:52:22.107Z,15.61
2022-09-15T21:14:20.906Z,14.15
2022-09-15T21:17:06.576Z,15.40
2022-09-15T21:19:45.643Z,13.49
2022-09-15T21:22:29.398Z,14.68
2022-09-15T21:40:48.633Z,12.44
2022-09-15T22:02:11.594Z,13.57
2022-09-15T22:04:39.782Z,14.59
2022-09-15T22:07:12.728Z,14.17
2022-09-15T22:09:40.993Z,13.91
2022-09-15T22:12:08.914Z,12.91
2022-09-15T22:14:36.941Z,14.76
2022-09-15T22:17:06.463Z,14.59
2022-09-15T22:19:35.761Z,13.70
2022-09-15T22:22:03.909Z,14.60
2022-09-15T22:24:31.924Z,15.16
2022-09-15T22:26:59.812Z,13.59
2022-09-15T22:29:28.313Z,15.11
2022-09-15T22:31:56.433Z,15.07
2022-09-15T22:34:29.085Z,13.88
2022-09-15T22:36:58.304Z,14.82
2022-09-15T22:39:43.961Z,13.00
2022-09-15T22:42:14.093Z,13.11
2022-09-15T22:44:41.866Z,13.39
2022-09-15T22:47:10.314Z,14.55
2022-09-15T22:49:38.597Z,14.98
2022-09-15T22:52:07.815Z,14.97
2022-09-15T22:54:35.718Z,14.28
2022-09-15T22:57:03.557Z,14.42
2022-09-15T22:59:33.530Z,14.98
2022-09-15T23:02:01.451Z,14.98
2022-09-15T23:04:29.487Z,14.99
2022-09-15T23:06:57.316Z,12.54
2022-09-15T23:09:26.596Z,12.18
2022-09-15T23:11:54.777Z,14.96
2022-09-15T23:14:23.826Z,12.77
2022-09-15T23:16:51.746Z,14.93
2022-09-15T23:19:19.856Z,12.46
2022-09-15T23:21:47.666Z,14.97
2022-09-15T23:24:17.038Z,14.93
2022-09-15T23:26:46.197Z,13.42
2022-09-15T23:29:14.218Z,13.27
2022-09-15T23:31:42.057Z,12.92
2022-09-15T23:34:10.028Z,14.18
2022-09-15T23:36:38.308Z,14.61
2022-09-15T23:39:06.244Z,12.83
2022-09-15T23:41:34.528Z,14.82
2022-09-15T23:44:07.744Z,12.89
2022-09-15T23:46:36.169Z,14.51
2022-09-15T23:49:04.191Z,13.30
2022-09-15T23:51:32.774Z,12.90
2022-09-15T23:54:01.912Z,12.65
2022-09-15T23:56:30.875Z,13.79
2022-09-15T23:58:58.735Z,12.47
